Time;durP1;ratioP1;P1;durP2;ratioP2;P2;SDS_P1;SDS_P2;PMS_P1;PMS_P2;Temp;Humidity;BMP_temperature;BMP_pressure;BME280_temperature;BME280_humidity;BME280_pressure;Samples;Min_cycle;Max_cycle;Signal;HPM_P1;HPM_P2
2022/06/04 00:02:20;;;;;;;4.65;4.08;;;;;;;23.22;55.87;100478.93;1763466;79;21139;-63
2022/06/04 00:04:46;;;;;;;4.87;4.03;;;;;;;23.21;55.87;100481.87;1758668;79;21020;-63
2022/06/04 00:07:13;;;;;;;4.28;3.98;;;;;;;23.19;55.83;100484.80;1763318;80;20977;-62
2022/06/04 00:15:28;;;;;;;4.22;3.83;;;;;;;23.19;55.84;100488.05;1763910;80;21055;-63
2022/06/04 00:17:42;;;;;;;5.62;4.65;;;;;;;23.15;55.84;100474.14;1755812;80;21033;-63
2022/06/04 00:20:11;;;;;;;7.83;4.45;;;;;;;23.14;55.79;100481.45;1772237;79;21070;-62
2022/06/04 00:22:38;;;;;;;5.03;4.17;;;;;;;23.12;55.81;100475.44;1776866;78;21034;-64
2022/06/04 00:25:08;;;;;;;4.53;4.12;;;;;;;23.11;55.82;100475.13;1776051;80;21042;-63
2022/06/04 00:27:34;;;;;;;5.25;4.62;;;;;;;23.11;55.81;100469.71;1763313;78;21115;-63
2022/06/04 00:30:01;;;;;;;5.12;4.62;;;;;;;23.10;55.81;100470.78;1769542;78;21085;-62
2022/06/04 00:32:28;;;;;;;6.42;4.78;;;;;;;23.10;55.81;100472.14;1778425;80;21064;-62
2022/06/04 00:34:55;;;;;;;7.20;4.83;;;;;;;23.10;55.81;100461.81;1727375;82;21619;-62
2022/06/04 00:37:21;;;;;;;6.20;5.28;;;;;;;23.09;55.79;100466.95;1771647;78;21053;-62
2022/06/04 00:39:48;;;;;;;5.33;4.83;;;;;;;23.09;55.78;100471.02;1781740;79;21202;-62
2022/06/04 00:42:20;;;;;;;6.10;4.70;;;;;;;23.09;55.84;100465.59;1807050;79;21027;-61
2022/06/04 00:45:15;;;;;;;6.17;4.72;;;;;;;23.08;55.85;100463.42;1777636;79;21006;-61
2022/06/04 00:47:42;;;;;;;6.90;4.35;;;;;;;23.08;55.85;100459.36;1814108;76;21064;-62
2022/06/04 00:50:09;;;;;;;5.00;4.60;;;;;;;23.08;55.86;100461.22;1842944;77;21015;-61
2022/06/04 00:52:36;;;;;;;5.33;4.83;;;;;;;23.07;55.89;100454.98;1808859;77;21138;-63
2022/06/04 00:55:05;;;;;;;5.78;5.28;;;;;;;23.07;55.91;100455.52;1817023;76;21536;-63
2022/06/04 00:57:49;;;;;;;5.78;4.62;;;;;;;23.07;55.92;100459.05;1846335;76;22396;-63
2022/06/04 01:00:44;;;;;;;7.45;5.50;;;;;;;23.06;55.91;100457.37;1831748;77;21663;-63
2022/06/04 01:03:25;;;;;;;5.25;4.75;;;;;;;23.06;55.91;100449.78;1820339;76;21540;-63
2022/06/04 01:06:25;;;;;;;5.85;5.35;;;;;;;23.04;55.92;100441.89;1845176;77;21147;-63
2022/06/04 01:09:06;;;;;;;5.12;4.72;;;;;;;23.04;55.92;100447.84;1847519;77;21001;-62
2022/06/04 01:12:09;;;;;;;7.65;4.80;;;;;;;23.03;55.91;100443.50;1838337;77;22210;-63
2022/06/04 01:14:30;;;;;;;6.12;4.53;;;;;;;23.03;55.78;100441.61;1827801;77;21349;-63
2022/06/04 01:17:18;;;;;;;5.25;4.75;;;;;;;23.02;55.71;100440.45;1818272;77;21040;-63
2022/06/04 01:19:56;;;;;;;6.20;4.85;;;;;;;23.02;55.74;100440.45;1815244;77;21121;-63
2022/06/04 01:22:37;;;;;;;5.80;5.12;;;;;;;23.03;55.75;100448.38;1836054;77;20991;-63
2022/06/04 01:25:25;;;;;;;5.72;5.22;;;;;;;23.02;55.77;100449.39;1821306;77;21014;-64
2022/06/04 01:28:04;;;;;;;5.87;5.15;;;;;;;23.02;55.77;100453.45;1831110;77;21007;-64
2022/06/04 01:30:47;;;;;;;5.87;5.33;;;;;;;23.01;55.81;100449.11;1852794;76;20951;-64
2022/06/04 01:33:24;;;;;;;5.60;5.10;;;;;;;23.00;55.85;100443.92;1820909;77;21823;-62
2022/06/04 01:35:58;;;;;;;5.30;4.83;;;;;;;22.99;55.64;100446.35;1842913;77;21034;-63
2022/06/04 01:38:37;;;;;;;4.70;4.22;;;;;;;22.99;55.48;100439.58;1799984;77;21018;-62
2022/06/04 01:41:16;;;;;;;5.53;4.70;;;;;;;22.99;55.51;100443.64;1805501;79;21030;-64
2022/06/04 01:43:52;;;;;;;4.45;4.03;;;;;;;22.98;55.45;100441.44;1821964;77;21245;-63
2022/06/04 01:46:35;;;;;;;5.10;4.58;;;;;;;23.00;55.25;100437.15;1819567;76;21118;-63
2022/06/04 01:49:13;;;;;;;5.67;5.10;;;;;;;23.00;55.22;100439.86;1831560;77;21010;-63
2022/06/04 01:51:39;;;;;;;4.80;4.33;;;;;;;23.00;55.20;100433.90;1798648;76;22026;-64
2022/06/04 01:54:13;;;;;;;4.70;4.30;;;;;;;23.01;55.24;100431.50;1817997;76;21069;-63
2022/06/04 01:56:46;;;;;;;6.90;4.65;;;;;;;23.01;55.32;100422.02;1840765;76;21517;-64
2022/06/04 01:59:30;;;;;;;7.05;4.20;;;;;;;23.01;55.31;100421.20;1847890;77;20999;-63
2022/06/04 02:01:59;;;;;;;5.03;4.50;;;;;;;23.02;55.36;100421.48;1838022;77;20983;-65
2022/06/04 02:04:28;;;;;;;4.62;4.22;;;;;;;23.02;55.38;100428.25;1838279;77;21384;-63
2022/06/04 02:09:52;;;;;;;4.80;4.05;;;;;;;23.02;55.35;100426.36;1840474;77;21065;-62
2022/06/04 02:12:19;;;;;;;4.85;4.45;;;;;;;23.02;55.37;100430.42;1826708;77;21132;-62
2022/06/04 02:14:46;;;;;;;4.83;3.95;;;;;;;23.01;55.39;100424.73;1847680;77;21072;-63
2022/06/04 02:17:17;;;;;;;4.80;3.95;;;;;;;23.02;55.39;100428.25;1825525;77;21021;-63
2022/06/04 02:19:45;;;;;;;4.80;4.35;;;;;;;23.02;55.34;100429.61;1812156;77;21025;-63
2022/06/04 02:22:11;;;;;;;5.90;4.50;;;;;;;23.02;55.35;100434.49;1823902;77;21017;-63
2022/06/04 02:24:38;;;;;;;5.20;4.35;;;;;;;23.01;55.33;100439.63;1815706;76;21864;-64
2022/06/04 02:27:06;;;;;;;4.22;3.92;;;;;;;23.03;55.41;100444.85;1807756;79;21044;-63
2022/06/04 02:29:34;;;;;;;5.55;4.37;;;;;;;23.03;55.41;100447.56;1823190;77;21013;-63
2022/06/04 02:32:30;;;;;;;5.03;4.62;;;;;;;23.02;55.42;100451.28;1853707;77;21025;-63
2022/06/04 02:35:30;;;;;;;5.40;4.28;;;;;;;23.01;55.38;100454.53;1748947;81;21494;-63
2022/06/04 02:38:23;;;;;;;4.90;4.33;;;;;;;23.01;55.36;100457.24;1748852;81;22161;-63
2022/06/04 02:41:04;;;;;;;5.00;4.15;;;;;;;23.00;55.40;100458.82;1755650;78;21105;-63
2022/06/04 02:44:13;;;;;;;6.80;4.25;;;;;;;22.96;55.37;100460.63;1815485;77;21069;-64
2022/06/04 02:46:45;;;;;;;5.17;4.67;;;;;;;22.96;55.36;100455.75;1810522;77;21042;-64
2022/06/04 02:49:22;;;;;;;5.28;4.78;;;;;;;22.93;55.39;100463.82;1842443;77;21608;-64
2022/06/04 02:51:53;;;;;;;6.97;5.00;;;;;;;22.93;55.49;100467.07;1816693;77;21093;-63
2022/06/04 02:54:30;;;;;;;7.08;4.25;;;;;;;22.92;55.49;100463.52;1807504;79;21013;-63
2022/06/04 02:56:58;;;;;;;5.42;4.87;;;;;;;22.92;55.48;100459.45;1799309;78;21092;-63
2022/06/04 02:59:24;;;;;;;4.92;4.28;;;;;;;22.91;55.51;100463.23;1768109;79;21031;-62
2022/06/04 03:01:55;;;;;;;4.58;4.17;;;;;;;22.92;55.58;100463.52;1799716;79;21053;-64
2022/06/04 03:04:22;;;;;;;5.53;5.10;;;;;;;22.93;55.48;100463.01;1800299;78;21139;-62
2022/06/04 03:06:49;;;;;;;8.78;5.15;;;;;;;22.93;55.47;100463.82;1807229;79;21037;-62
2022/06/04 03:09:18;;;;;;;4.72;4.30;;;;;;;22.94;55.35;100465.99;1736662;80;21033;-62
2022/06/04 03:11:48;;;;;;;4.95;4.53;;;;;;;22.96;55.36;100469.30;1783393;79;20975;-63
2022/06/04 03:14:18;;;;;;;5.28;4.85;;;;;;;22.96;55.48;100463.87;1800472;79;21012;-63
2022/06/04 03:16:47;;;;;;;5.12;4.40;;;;;;;22.96;55.72;100461.98;1807750;79;21844;-63
2022/06/04 03:19:14;;;;;;;4.50;4.10;;;;;;;22.99;55.92;100463.42;1807747;79;21014;-63
2022/06/04 03:21:42;;;;;;;4.85;4.20;;;;;;;23.02;55.94;100460.77;1779350;79;21061;-64
2022/06/04 03:24:11;;;;;;;6.28;4.22;;;;;;;23.06;56.52;100457.92;1744908;82;21478;-62
2022/06/04 03:26:38;;;;;;;4.55;3.98;;;;;;;23.10;56.92;100457.74;1783010;79;21017;-64
2022/06/04 03:29:05;;;;;;;4.70;4.30;;;;;;;23.12;56.64;100453.77;1770836;79;21131;-63
2022/06/04 03:31:32;;;;;;;7.05;4.28;;;;;;;23.15;55.78;100448.39;1739993;80;21038;-63
2022/06/04 03:33:59;;;;;;;4.42;3.98;;;;;;;23.18;55.19;100450.64;1739499;82;21512;-63
2022/06/04 03:36:26;;;;;;;4.67;3.62;;;;;;;23.19;54.93;100448.22;1739807;80;21037;-62
2022/06/04 03:38:57;;;;;;;4.87;3.92;;;;;;;23.20;54.71;100447.17;1751120;80;21068;-64
2022/06/04 03:41:24;;;;;;;4.17;3.65;;;;;;;23.21;54.51;100450.70;1748517;80;21796;-64
2022/06/04 03:43:54;;;;;;;4.25;3.83;;;;;;;23.23;54.42;100457.52;1831559;77;21045;-63
2022/06/04 03:46:24;;;;;;;4.12;3.72;;;;;;;23.23;54.23;100453.46;1845879;77;21497;-63
2022/06/04 03:48:56;;;;;;;4.42;3.75;;;;;;;23.24;54.22;100457.83;1826393;76;21037;-64
2022/06/04 03:51:25;;;;;;;4.33;3.55;;;;;;;23.25;54.11;100460.83;1847691;77;21029;-63
2022/06/04 03:53:52;;;;;;;4.80;3.27;;;;;;;23.26;53.99;100466.55;1848503;77;21243;-64
2022/06/04 03:56:18;;;;;;;4.17;3.60;;;;;;;23.27;53.91;100459.24;1838886;77;21006;-63
2022/06/04 03:58:45;;;;;;;3.77;3.47;;;;;;;23.27;53.75;100461.41;1860192;77;21022;-63
2022/06/04 04:01:22;;;;;;;5.22;3.72;;;;;;;23.28;53.62;100464.44;1855216;77;20987;-63
2022/06/04 04:03:49;;;;;;;3.72;3.42;;;;;;;23.29;53.50;100468.78;1770307;80;21039;-64
2022/06/04 04:06:18;;;;;;;4.33;3.55;;;;;;;23.30;53.39;100465.56;1784682;79;22174;-64
2022/06/04 04:08:45;;;;;;;4.40;3.12;;;;;;;23.30;53.37;100465.02;1862574;77;21006;-64
2022/06/04 04:11:13;;;;;;;6.58;3.80;;;;;;;23.32;53.26;100470.22;1854942;76;21070;-64
2022/06/04 04:13:41;;;;;;;5.35;3.70;;;;;;;23.33;53.23;100465.08;1843556;77;21565;-62
2022/06/04 04:16:09;;;;;;;3.62;3.33;;;;;;;23.34;53.11;100467.56;1843087;77;21497;-63
2022/06/04 04:18:35;;;;;;;4.42;3.37;;;;;;;23.34;53.09;100460.78;1815385;77;21732;-62
2022/06/04 04:21:09;;;;;;;5.70;3.15;;;;;;;23.39;53.00;100471.45;1837732;77;21076;-63
2022/06/04 04:23:36;;;;;;;2.98;2.77;;;;;;;23.40;52.94;100471.75;1848007;77;21076;-63
2022/06/04 04:26:04;;;;;;;3.37;2.92;;;;;;;23.41;52.76;100473.39;1847368;77;20970;-63
2022/06/04 04:28:31;;;;;;;3.83;2.65;;;;;;;23.44;52.65;100478.36;1775423;79;21014;-63
2022/06/04 04:30:58;;;;;;;3.02;2.83;;;;;;;23.45;52.48;100470.50;1794171;79;21091;-64
2022/06/04 04:33:25;;;;;;;3.42;2.58;;;;;;;23.47;52.39;100475.16;1769074;79;21000;-63
2022/06/04 04:35:51;;;;;;;2.92;2.58;;;;;;;23.49;52.33;100473.06;1764177;81;21006;-64
2022/06/04 04:38:18;;;;;;;3.47;2.62;;;;;;;23.50;52.30;100474.16;1773325;80;21041;-63
2022/06/04 04:40:46;;;;;;;3.15;2.95;;;;;;;23.52;52.23;100472.57;1807494;79;21034;-63
2022/06/04 04:43:12;;;;;;;3.87;2.85;;;;;;;23.53;52.09;100470.98;1801882;79;21136;-63
2022/06/04 04:45:39;;;;;;;6.20;2.58;;;;;;;23.56;51.94;100468.32;1796308;79;21458;-64
2022/06/04 04:48:06;;;;;;;3.22;2.90;;;;;;;23.59;51.96;100468.40;1800428;79;21066;-63
2022/06/04 04:50:36;;;;;;;3.72;2.80;;;;;;;23.61;51.87;100474.41;1769996;79;20966;-63
2022/06/04 04:53:05;;;;;;;3.05;2.37;;;;;;;23.63;51.83;100463.61;1779865;79;21078;-64
2022/06/04 04:55:32;;;;;;;2.90;2.70;;;;;;;23.64;51.75;100462.56;1776019;80;21130;-64
2022/06/04 04:58:00;;;;;;;2.92;2.50;;;;;;;23.66;51.59;100455.52;1779155;80;21034;-63
2022/06/04 05:00:28;;;;;;;2.77;2.58;;;;;;;23.68;51.55;100459.66;1776878;80;21505;-63
2022/06/04 05:02:58;;;;;;;4.25;2.80;;;;;;;23.69;51.46;100462.66;1759548;80;21050;-62
2022/06/04 05:05:25;;;;;;;4.45;2.85;;;;;;;23.71;51.40;100457.81;1839926;77;21017;-63
2022/06/04 05:07:51;;;;;;;3.87;2.58;;;;;;;23.73;51.24;100458.41;1814858;77;21105;-62
2022/06/04 05:10:19;;;;;;;3.17;2.87;;;;;;;23.75;51.16;100460.88;1833768;77;20982;-62
2022/06/04 05:12:45;;;;;;;2.72;2.52;;;;;;;23.77;51.22;100459.30;1846498;76;21053;-63
2022/06/04 05:15:12;;;;;;;3.12;2.40;;;;;;;23.79;51.20;100461.27;1847710;77;21092;-63
2022/06/04 05:17:41;;;;;;;2.60;2.40;;;;;;;23.81;51.19;100468.09;1824051;77;21029;-63
2022/06/04 05:20:10;;;;;;;4.00;2.92;;;;;;;23.82;51.21;100471.66;1830154;77;21132;-63
2022/06/04 05:22:37;;;;;;;2.58;2.37;;;;;;;23.83;51.12;100465.97;1839669;77;21512;-62
2022/06/04 05:25:04;;;;;;;3.25;2.95;;;;;;;23.85;51.05;100461.13;1835073;77;21014;-65
2022/06/04 05:27:31;;;;;;;3.15;2.85;;;;;;;23.88;51.16;100463.91;1835673;76;21537;-64
2022/06/04 05:29:57;;;;;;;2.55;2.30;;;;;;;23.88;51.00;100462.02;1816836;76;21009;-63
2022/06/04 05:32:24;;;;;;;3.77;2.27;;;;;;;23.90;50.99;100461.25;1815469;77;21072;-64
2022/06/04 05:34:50;;;;;;;3.52;2.35;;;;;;;23.92;50.95;100456.94;1842787;76;21658;-64
2022/06/04 05:37:17;;;;;;;3.55;2.50;;;;;;;23.93;50.84;100453.15;1849166;75;20971;-63
2022/06/04 05:39:43;;;;;;;2.40;2.20;;;;;;;23.95;50.74;100455.09;1846226;76;20983;-63
2022/06/04 05:42:10;;;;;;;2.60;2.35;;;;;;;23.97;50.68;100452.14;1831183;76;21032;-63
2022/06/04 05:44:37;;;;;;;2.90;2.42;;;;;;;23.98;50.63;100450.55;1844387;76;21119;-63
2022/06/04 05:47:04;;;;;;;3.80;2.95;;;;;;;24.00;50.55;100450.32;1824077;76;21040;-64
2022/06/04 05:49:31;;;;;;;2.52;2.33;;;;;;;24.01;50.47;100454.16;1845318;75;21494;-65
2022/06/04 05:51:58;;;;;;;2.85;2.33;;;;;;;24.03;50.20;100453.89;1839942;77;21544;-64
2022/06/04 05:54:24;;;;;;;2.37;2.17;;;;;;;24.05;50.17;100462.62;1802777;78;21034;-63
2022/06/04 05:56:51;;;;;;;2.75;2.35;;;;;;;24.07;50.14;100465.41;1779931;80;21132;-64
2022/06/04 05:59:20;;;;;;;3.75;2.08;;;;;;;24.07;50.09;100457.27;1755250;78;21217;-64
2022/06/04 06:01:47;;;;;;;4.17;2.17;;;;;;;24.09;49.95;100461.92;1794956;79;21042;-63
2022/06/04 06:04:15;;;;;;;3.50;2.37;;;;;;;24.10;49.66;100460.84;1807596;79;21022;-64
2022/06/04 06:06:46;;;;;;;2.35;2.12;;;;;;;24.12;49.49;100455.17;1800069;79;20987;-64
2022/06/04 06:09:14;;;;;;;2.65;2.40;;;;;;;24.12;49.54;100458.70;1806957;79;21247;-65
2022/06/04 06:11:41;;;;;;;4.28;2.20;;;;;;;24.13;49.50;100453.58;1797137;79;21002;-64
2022/06/04 06:14:10;;;;;;;2.60;2.37;;;;;;;24.14;49.47;100455.75;1777915;80;21017;-64
2022/06/04 06:16:45;;;;;;;3.77;2.20;;;;;;;24.14;49.28;100453.89;1784892;79;21073;-64
2022/06/04 06:19:13;;;;;;;3.10;2.45;;;;;;;24.16;49.10;100446.84;1791570;78;21081;-65
2022/06/04 06:21:42;;;;;;;2.35;2.15;;;;;;;24.17;48.86;100448.50;1787717;78;21636;-64
2022/06/04 06:24:09;;;;;;;2.47;2.27;;;;;;;24.18;48.71;100447.96;1831500;77;20985;-64
2022/06/04 06:26:43;;;;;;;2.35;2.15;;;;;;;24.18;48.67;100437.92;1829866;77;21463;-64
2022/06/04 06:29:09;;;;;;;2.40;2.20;;;;;;;24.20;48.60;100440.40;1814644;79;20987;-64
2022/06/04 06:31:36;;;;;;;2.60;2.40;;;;;;;24.20;48.66;100441.22;1839405;76;21002;-63
2022/06/04 06:34:03;;;;;;;2.35;2.15;;;;;;;24.21;48.59;100432.02;1827175;77;21184;-64
2022/06/04 06:36:30;;;;;;;2.37;2.17;;;;;;;24.22;48.51;100432.84;1843808;76;20963;-64
2022/06/04 06:38:57;;;;;;;3.00;2.20;;;;;;;24.23;48.59;100424.45;1854799;77;20990;-64
2022/06/04 06:41:25;;;;;;;2.35;2.15;;;;;;;24.25;48.50;100426.94;1844180;77;21065;-64
2022/06/04 06:43:53;;;;;;;2.47;2.27;;;;;;;24.25;48.58;100415.53;1812887;77;21469;-64
2022/06/04 06:46:30;;;;;;;2.83;2.52;;;;;;;24.27;48.62;100412.58;1761461;80;21220;-64
2022/06/04 06:49:06;;;;;;;5.17;2.95;;;;;;;24.28;48.66;100411.50;1767467;80;21606;-64
2022/06/04 06:51:41;;;;;;;6.35;2.92;;;;;;;24.30;48.76;100405.33;1791650;79;21470;-63
2022/06/04 06:54:08;;;;;;;6.40;2.83;;;;;;;24.31;48.89;100400.98;1794530;79;21036;-64
2022/06/04 06:56:38;;;;;;;3.10;2.80;;;;;;;24.32;48.79;100401.29;1785842;79;21245;-65
2022/06/04 06:59:05;;;;;;;6.12;2.40;;;;;;;24.34;48.25;100407.84;1761853;79;21103;-63
2022/06/04 07:01:32;;;;;;;4.40;2.60;;;;;;;24.34;48.53;100410.02;1783987;79;21513;-63
2022/06/04 07:03:59;;;;;;;6.15;2.52;;;;;;;24.38;49.02;100412.23;1776218;77;21022;-68
2022/06/04 07:06:42;;;;;;;4.22;2.75;;;;;;;24.40;49.14;100404.69;1766406;79;21058;-62
2022/06/04 07:09:21;;;;;;;5.92;2.47;;;;;;;24.43;49.34;100390.06;1776691;80;21042;-64
2022/06/04 07:11:48;;;;;;;5.22;2.20;;;;;;;24.45;49.50;100392.54;1765472;79;21144;-65
2022/06/04 07:14:16;;;;;;;4.58;2.50;;;;;;;24.48;49.71;100392.88;1742259;81;21066;-65
2022/06/04 07:16:43;;;;;;;5.60;2.47;;;;;;;24.50;49.90;100394.81;1747636;79;21058;-65
2022/06/04 07:19:13;;;;;;;6.72;3.17;;;;;;;24.53;50.03;100382.15;1753145;81;21411;-65
2022/06/04 07:21:40;;;;;;;9.98;4.60;;;;;;;24.56;49.54;100375.94;1772539;81;21073;-65
2022/06/04 07:24:07;;;;;;;10.82;5.70;;;;;;;24.58;48.81;100371.89;1774757;80;21147;-67
2022/06/04 07:26:34;;;;;;;18.32;6.12;;;;;;;24.61;48.69;100366.50;1759085;79;21046;-65
2022/06/04 07:29:01;;;;;;;15.83;6.20;;;;;;;24.64;49.45;100375.52;1741672;82;21002;-66
2022/06/04 07:31:29;;;;;;;10.98;5.35;;;;;;;24.67;49.61;100373.69;1741637;82;21011;-65
2022/06/04 07:33:56;;;;;;;12.35;5.67;;;;;;;24.69;49.41;100364.21;1764011;79;21030;-65
2022/06/04 07:36:29;;;;;;;9.90;4.85;;;;;;;24.72;49.42;100362.88;1772709;80;21866;-65
2022/06/04 07:38:56;;;;;;;6.95;4.78;;;;;;;24.76;48.44;100358.59;1810067;79;21065;-65
2022/06/04 07:41:32;;;;;;;6.95;4.78;;;;;;;24.77;48.20;100356.73;1809550;79;21005;-65
2022/06/04 07:43:59;;;;;;;11.28;4.75;;;;;;;24.80;47.94;100361.14;1791574;78;21050;-66
2022/06/04 07:46:28;;;;;;;7.80;4.58;;;;;;;24.83;47.55;100355.19;1842785;77;21009;-66
2022/06/04 07:48:55;;;;;;;8.80;5.08;;;;;;;24.84;47.43;100355.49;1843072;77;21083;-66
2022/06/04 07:51:22;;;;;;;10.58;5.00;;;;;;;24.86;47.37;100358.78;1842286;77;21014;-67
2022/06/04 07:53:50;;;;;;;9.10;4.87;;;;;;;24.89;47.42;100356.09;1820756;76;21094;-64
2022/06/04 07:56:18;;;;;;;11.97;5.10;;;;;;;24.90;47.67;100359.11;1825660;76;21490;-66
2022/06/04 07:58:45;;;;;;;8.43;4.70;;;;;;;24.92;48.00;100356.43;1813760;77;21021;-66
2022/06/04 08:01:14;;;;;;;12.63;4.90;;;;;;;24.96;47.63;100354.59;1842683;77;21132;-65
2022/06/04 08:03:43;;;;;;;4.78;3.58;;;;;;;24.98;47.43;100353.25;1842688;77;21462;-65
2022/06/04 08:06:12;;;;;;;5.33;3.60;;;;;;;24.99;46.77;100344.02;1838857;76;21076;-66
2022/06/04 08:08:41;;;;;;;7.25;3.50;;;;;;;25.01;45.55;100347.30;1825920;77;21486;-66
2022/06/04 08:13:53;;;;;;;4.80;3.30;;;;;;;25.03;45.91;100350.59;1781940;80;21151;-66
2022/06/04 08:16:20;;;;;;;7.00;4.03;;;;;;;25.05;45.69;100351.20;1782027;77;21033;-66
2022/06/04 08:18:47;;;;;;;6.67;4.20;;;;;;;25.06;45.92;100346.58;1751733;80;21481;-66
2022/06/04 08:21:14;;;;;;;6.08;4.22;;;;;;;25.08;46.34;100341.71;1781989;80;21321;-64
2022/06/04 08:23:42;;;;;;;7.17;4.22;;;;;;;25.09;46.59;100347.41;1784521;79;20985;-64
2022/06/04 08:26:08;;;;;;;6.75;3.33;;;;;;;25.10;46.57;100343.09;1793522;77;21185;-64
2022/06/04 08:28:36;;;;;;;8.15;3.83;;;;;;;25.12;46.52;100344.20;1779897;80;20986;-62
2022/06/04 08:31:06;;;;;;;9.63;3.80;;;;;;;25.14;46.75;100331.19;1831762;77;21081;-62
2022/06/04 08:33:32;;;;;;;7.28;3.70;;;;;;;25.16;47.27;100335.02;1820166;77;21038;-61
2022/06/04 08:35:59;;;;;;;8.18;3.33;;;;;;;25.19;47.53;100339.94;1797011;77;21029;-63
2022/06/04 08:38:25;;;;;;;4.55;3.22;;;;;;;25.20;47.26;100332.09;1798171;77;21144;-64
2022/06/04 08:40:56;;;;;;;9.95;3.70;;;;;;;25.22;47.25;100340.30;1820035;78;21056;-64
2022/06/04 08:43:46;;;;;;;10.50;3.85;;;;;;;25.24;47.78;100332.71;1822671;77;21092;-65
2022/06/04 08:46:24;;;;;;;8.85;5.75;;;;;;;25.26;48.21;100333.28;1813900;77;21034;-65
2022/06/04 08:48:51;;;;;;;6.87;6.05;;;;;;;25.29;48.43;100323.82;1807036;77;21005;-65
2022/06/04 08:51:24;;;;;;;7.65;4.65;;;;;;;25.31;48.44;100322.48;1816301;77;21209;-66
2022/06/04 08:53:55;;;;;;;5.95;4.17;;;;;;;25.33;48.37;100320.88;1779017;79;21034;-69
2022/06/04 08:59:21;;;;;;;7.47;3.30;;;;;;;25.39;48.00;100320.41;1784858;77;21046;-66
2022/06/04 09:01:55;;;;;;;4.12;3.72;;;;;;;25.41;48.01;100321.80;1810268;77;21590;-64
2022/06/04 09:04:44;;;;;;;4.80;3.45;;;;;;;25.44;47.55;100321.30;1816005;77;21185;-67
2022/06/04 09:07:35;;;;;;;5.95;3.12;;;;;;;25.47;47.52;100314.52;1793354;77;20998;-67
2022/06/04 09:10:24;;;;;;;6.33;3.67;;;;;;;25.49;47.38;100317.81;1812989;78;21061;-65
2022/06/04 09:13:16;;;;;;;6.85;2.95;;;;;;;25.50;47.11;100315.39;1826045;77;21061;-67
2022/06/04 09:15:55;;;;;;;3.30;3.00;;;;;;;25.52;47.03;100310.52;1788480;77;21125;-65
2022/06/04 09:18:34;;;;;;;4.97;2.75;;;;;;;25.55;46.58;100307.27;1836972;77;21258;-69
2022/06/04 09:21:05;;;;;;;4.45;3.10;;;;;;;25.55;46.04;100303.19;1847460;77;21034;-70
2022/06/04 09:23:42;;;;;;;3.20;2.80;;;;;;;25.58;46.62;100298.62;1847988;77;21044;-67
2022/06/04 09:28:32;;;;;;;3.00;2.67;;;;;;;25.65;44.62;100299.25;1870246;76;22667;-70
2022/06/04 09:31:20;;;;;;;2.85;2.65;;;;;;;25.64;44.61;100304.94;1826482;78;21066;-70
2022/06/04 09:33:55;;;;;;;2.65;2.45;;;;;;;25.68;44.76;100298.73;1821815;77;21081;-70
2022/06/04 09:36:28;;;;;;;2.70;2.50;;;;;;;25.71;44.09;100297.41;1793867;79;21210;-71
2022/06/04 09:39:00;;;;;;;2.85;2.65;;;;;;;25.74;44.41;100301.52;1793814;79;21006;-71
2022/06/04 09:41:30;;;;;;;2.83;2.62;;;;;;;25.77;43.59;100303.70;1793830;80;20961;-70
2022/06/04 09:44:14;;;;;;;2.60;2.40;;;;;;;25.80;42.89;100295.05;1793916;79;21557;-72
2022/06/04 09:46:45;;;;;;;2.67;2.47;;;;;;;25.82;42.92;100292.34;1794303;79;21069;-70
2022/06/04 09:49:38;;;;;;;5.12;2.60;;;;;;;25.86;42.83;100289.41;1793899;80;21493;-71
2022/06/04 09:52:28;;;;;;;2.47;2.35;;;;;;;25.90;42.82;100286.98;1814827;77;21004;-70
2022/06/04 09:55:03;;;;;;;3.40;2.50;;;;;;;25.94;43.05;100289.53;1823032;78;21430;-71
2022/06/04 09:57:36;;;;;;;2.60;2.40;;;;;;;25.98;42.83;100290.66;1826310;78;21026;-72
2022/06/04 10:00:19;;;;;;;3.05;2.55;;;;;;;26.03;42.89;100278.98;1826499;78;21128;-71
2022/06/04 10:02:59;;;;;;;2.17;2.08;;;;;;;26.09;42.72;100276.58;1826340;78;21115;-71
2022/06/04 10:05:30;;;;;;;2.60;2.40;;;;;;;26.13;42.98;100260.55;1826314;78;21523;-71
2022/06/04 10:07:57;;;;;;;3.02;2.40;;;;;;;26.18;43.15;100261.97;1804471;77;21065;-71
2022/06/04 10:10:34;;;;;;;2.72;2.40;;;;;;;26.23;43.23;100268.80;1793834;80;21009;-71
2022/06/04 10:16:05;;;;;;;2.80;2.42;;;;;;;26.34;43.65;100259.64;1794096;79;21049;-71
2022/06/04 10:18:32;;;;;;;2.60;2.40;;;;;;;26.39;43.64;100242.54;1772551;80;21032;-73
2022/06/04 10:21:18;;;;;;;4.17;2.72;;;;;;;26.45;43.80;100263.28;1793896;80;21501;-71
2022/06/04 10:23:47;;;;;;;2.52;2.30;;;;;;;26.49;44.01;100260.31;1825249;78;21075;-71
2022/06/04 10:26:42;;;;;;;3.10;2.50;;;;;;;26.56;43.47;100242.36;1802948;78;21085;-70
2022/06/04 10:29:37;;;;;;;4.42;2.27;;;;;;;26.62;43.62;100253.63;1792844;80;21012;-70
2022/06/04 10:32:12;;;;;;;3.85;2.80;;;;;;;26.69;43.95;100252.84;1794221;79;20994;-70
2022/06/04 10:34:54;;;;;;;3.77;2.50;;;;;;;26.73;43.20;100241.69;1794262;80;20993;-70
2022/06/04 10:37:32;;;;;;;3.02;2.42;;;;;;;26.82;43.23;100241.48;1793994;79;21033;-71
2022/06/04 10:40:33;;;;;;;2.70;2.50;;;;;;;26.88;43.37;100241.78;1823518;78;21119;-70
2022/06/04 10:43:23;;;;;;;2.55;2.35;;;;;;;26.95;43.22;100242.92;1806797;78;20994;-71
2022/06/04 10:46:35;;;;;;;2.67;2.47;;;;;;;27.04;42.60;100241.86;1814298;77;22441;-70
2022/06/04 10:49:41;;;;;;;3.77;2.65;;;;;;;27.14;42.19;100234.27;1719046;83;21049;-71
2022/06/04 10:52:31;;;;;;;2.33;2.22;;;;;;;27.25;42.22;100234.09;1789087;79;21103;-71
2022/06/04 10:55:27;;;;;;;3.85;2.50;;;;;;;27.35;42.13;100225.12;1811775;78;21143;-71
2022/06/04 10:58:13;;;;;;;2.45;2.22;;;;;;;27.43;42.35;100229.25;1825311;78;21533;-70
2022/06/04 11:00:51;;;;;;;2.62;2.40;;;;;;;27.50;42.75;100228.98;1813784;78;21496;-70
2022/06/04 11:03:31;;;;;;;4.30;2.58;;;;;;;27.56;43.02;100233.35;1825476;78;21470;-71
2022/06/04 11:06:23;;;;;;;2.60;2.40;;;;;;;27.61;42.74;100219.73;1825728;78;20972;-69
2022/06/04 11:09:13;;;;;;;2.40;2.20;;;;;;;27.69;42.42;100222.48;1780336;78;22238;-70
2022/06/04 11:11:51;;;;;;;2.50;2.30;;;;;;;27.77;42.34;100223.30;1825209;78;21033;-70
2022/06/04 11:14:51;;;;;;;2.67;2.47;;;;;;;27.83;42.05;100219.48;1825949;78;21072;-71
2022/06/04 11:17:27;;;;;;;2.20;2.10;;;;;;;27.88;42.10;100217.32;1816795;78;21045;-71
2022/06/04 11:19:59;;;;;;;2.58;2.37;;;;;;;27.93;41.35;100218.18;1806283;78;21080;-70
2022/06/04 11:22:42;;;;;;;3.22;2.83;;;;;;;27.98;41.29;100212.70;1826588;78;21218;-70
2022/06/04 11:25:32;;;;;;;2.75;2.55;;;;;;;28.03;41.38;100209.17;1825229;78;21504;-70
2022/06/04 11:28:06;;;;;;;2.65;2.37;;;;;;;28.09;41.17;100204.53;1820599;78;20974;-62
2022/06/04 11:30:59;;;;;;;4.60;2.55;;;;;;;28.14;41.88;100201.22;1814398;79;21518;-60
2022/06/04 11:33:49;;;;;;;4.37;2.70;;;;;;;28.16;42.73;100209.15;1812797;78;21504;-61
2022/06/04 11:36:36;;;;;;;3.58;2.52;;;;;;;28.14;42.98;100208.05;1814046;79;21269;-62
2022/06/04 11:39:34;;;;;;;5.03;2.90;;;;;;;28.11;43.16;100205.07;1793863;78;21069;-62
2022/06/04 11:42:06;;;;;;;3.17;2.62;;;;;;;28.07;42.48;100199.86;1803872;77;20982;-63
2022/06/04 11:44:37;;;;;;;;;;;;;;;28.02;42.18;100196.04;1798430;79;21085;-68
2022/06/04 11:47:42;;;;;;;4.20;2.80;;;;;;;27.99;42.17;100192.51;1812473;78;20207;-66
2022/06/04 11:50:21;;;;;;;9.03;2.95;;;;;;;27.95;44.00;100194.16;1804832;79;21091;-66
2022/06/04 11:53:08;;;;;;;6.30;2.47;;;;;;;27.90;44.93;100183.77;1808944;78;20990;-64
2022/06/04 11:55:52;;;;;;;8.48;3.05;;;;;;;27.85;45.37;100180.44;1807593;79;21034;-64
2022/06/04 11:58:43;;;;;;;9.70;3.50;;;;;;;27.80;46.17;100179.09;1807858;79;21017;-65
2022/06/04 12:01:16;;;;;;;12.88;3.77;;;;;;;27.76;46.32;100182.10;1813593;79;21003;-64
2022/06/04 12:03:49;;;;;;;9.23;3.87;;;;;;;27.73;46.33;100182.08;1814494;79;21180;-65
2022/06/04 12:06:24;;;;;;;8.63;3.77;;;;;;;27.71;46.28;100179.36;1814317;79;21070;-65
2022/06/04 12:09:24;;;;;;;14.85;4.50;;;;;;;27.70;46.28;100183.16;1784267;78;21009;-65
2022/06/04 12:12:05;;;;;;;17.75;4.28;;;;;;;27.70;46.70;100174.97;1782502;80;20995;-66
2022/06/04 12:15:20;;;;;;;12.47;4.20;;;;;;;27.71;46.66;100177.44;1780664;78;21565;-66